Time;durP1;ratioP1;P1;durP2;ratioP2;P2;SDS_P1;SDS_P2;PMS_P1;PMS_P2;Temp;Humidity;BMP_temperature;BMP_pressure;BME280_temperature;BME280_humidity;BME280_pressure;Samples;Min_cycle;Max_cycle;Signal;HPM_P1;HPM_P2
2021/01/31 11:50:32;;;;;;;4.35;3.20;;;0.80;99.90;;;;;;5052178;28;20853;-76
2021/01/31 11:53:01;;;;;;;9.32;4.57;;;0.90;99.90;;;;;;5050584;28;20270;-74
2021/01/31 11:55:32;;;;;;;3.30;2.33;;;0.70;99.90;;;;;;5050491;28;20654;-74
2021/01/31 11:57:59;;;;;;;4.90;2.95;;;0.70;99.90;;;;;;5050802;28;20223;-74
2021/01/31 12:00:27;;;;;;;4.75;2.85;;;0.90;99.90;;;;;;5052391;28;20174;-74
2021/01/31 12:02:58;;;;;;;3.92;3.33;;;1.00;99.90;;;;;;5065152;28;20287;-81
2021/01/31 12:05:26;;;;;;;6.30;3.65;;;1.00;99.90;;;;;;5051496;28;20174;-74
2021/01/31 12:07:55;;;;;;;4.95;1.80;;;1.10;99.90;;;;;;5049644;28;20219;-74
2021/01/31 12:10:26;;;;;;;5.80;2.78;;;1.00;99.90;;;;;;5052751;28;20273;-78
2021/01/31 12:12:58;;;;;;;4.40;3.60;;;1.00;99.90;;;;;;5051028;28;20296;-76
2021/01/31 12:15:30;;;;;;;7.57;4.53;;;1.00;99.90;;;;;;5031489;28;20185;-76
2021/01/31 12:17:57;;;;;;;5.50;3.72;;;1.00;99.90;;;;;;5029578;28;20197;-76
2021/01/31 12:20:25;;;;;;;5.65;3.83;;;1.10;99.90;;;;;;5029950;28;20236;-76
2021/01/31 12:22:57;;;;;;;6.32;4.30;;;1.30;99.90;;;;;;5030523;28;20205;-76
2021/01/31 12:25:25;;;;;;;7.53;3.75;;;1.40;99.90;;;;;;5029620;28;20265;-76
2021/01/31 12:27:53;;;;;;;5.75;4.70;;;1.40;99.90;;;;;;5030334;28;20609;-76
2021/01/31 12:30:24;;;;;;;10.15;5.13;;;1.40;99.90;;;;;;5029591;28;20231;-75
2021/01/31 12:32:53;;;;;;;4.15;3.42;;;1.40;99.90;;;;;;5029106;28;20229;-75
2021/01/31 12:35:21;;;;;;;3.70;3.35;;;1.40;99.90;;;;;;5029410;28;20704;-76
2021/01/31 12:37:49;;;;;;;3.88;3.42;;;1.40;99.90;;;;;;5029993;28;20196;-75
2021/01/31 12:40:19;;;;;;;5.90;4.32;;;1.30;99.90;;;;;;5029469;28;20630;-76
2021/01/31 12:42:46;;;;;;;7.75;4.60;;;1.20;99.90;;;;;;5029424;28;20212;-75
2021/01/31 12:45:15;;;;;;;5.22;3.65;;;1.10;99.90;;;;;;5031340;28;20181;-75
2021/01/31 12:47:43;;;;;;;7.30;4.13;;;1.30;99.90;;;;;;5029664;28;20639;-77
2021/01/31 12:50:12;;;;;;;3.45;3.15;;;1.30;99.90;;;;;;5058328;28;20563;-74
2021/01/31 12:52:39;;;;;;;6.40;4.15;;;1.30;99.90;;;;;;5034083;28;20693;-75
2021/01/31 12:55:10;;;;;;;5.68;4.28;;;1.50;99.90;;;;;;5035538;28;20173;-76
2021/01/31 12:57:38;;;;;;;8.60;6.60;;;1.60;99.90;;;;;;5019010;28;20259;-75
2021/01/31 13:00:08;;;;;;;9.40;4.00;;;1.50;99.90;;;;;;5035668;28;20210;-76
2021/01/31 13:02:38;;;;;;;5.70;4.25;;;1.40;99.90;;;;;;5035900;28;20215;-76
2021/01/31 13:05:07;;;;;;;7.32;4.78;;;1.40;99.90;;;;;;5038253;28;20174;-75
2021/01/31 13:07:34;;;;;;;11.20;5.22;;;1.50;99.90;;;;;;5040199;28;20177;-75
2021/01/31 13:10:03;;;;;;;7.70;4.20;;;1.60;99.90;;;;;;5036573;28;20189;-75
2021/01/31 13:12:30;;;;;;;6.15;4.10;;;1.70;99.90;;;;;;5035964;28;20205;-77
2021/01/31 13:14:58;;;;;;;7.57;4.60;;;1.70;99.90;;;;;;5035511;28;20265;-76
2021/01/31 13:17:25;;;;;;;5.47;3.42;;;1.70;99.90;;;;;;5034158;28;20177;-76
2021/01/31 13:19:52;;;;;;;5.30;3.72;;;1.70;99.90;;;;;;5035356;28;20252;-75
2021/01/31 13:22:20;;;;;;;8.73;4.68;;;1.60;99.90;;;;;;5035137;28;20213;-76
2021/01/31 13:24:47;;;;;;;5.25;4.18;;;1.60;99.90;;;;;;5017285;28;20212;-76
2021/01/31 13:27:14;;;;;;;4.38;3.97;;;1.70;99.90;;;;;;5035198;28;20177;-77
2021/01/31 13:29:42;;;;;;;3.42;2.72;;;1.60;99.90;;;;;;5035266;28;20309;-76
2021/01/31 13:32:09;;;;;;;6.05;3.35;;;1.50;99.90;;;;;;5035304;28;20236;-77
2021/01/31 13:34:37;;;;;;;4.90;2.95;;;1.50;99.90;;;;;;5017605;28;20646;-76
2021/01/31 13:37:04;;;;;;;8.50;3.90;;;1.50;99.90;;;;;;5034852;28;20189;-75
2021/01/31 13:39:32;;;;;;;6.10;3.95;;;1.30;99.90;;;;;;5035183;28;20557;-75
2021/01/31 13:41:59;;;;;;;4.65;3.83;;;1.20;99.90;;;;;;5017663;28;20217;-76
2021/01/31 13:44:27;;;;;;;4.85;3.70;;;1.00;99.90;;;;;;5035116;28;20184;-75
2021/01/31 13:46:54;;;;;;;7.63;3.90;;;1.10;99.90;;;;;;5017225;28;20185;-76
2021/01/31 13:49:23;;;;;;;4.13;3.45;;;1.20;99.90;;;;;;5035087;28;20300;-76
2021/01/31 13:51:50;;;;;;;4.95;2.70;;;1.20;99.90;;;;;;5016892;28;20213;-77
2021/01/31 13:54:18;;;;;;;4.72;4.00;;;1.20;99.90;;;;;;5034859;28;20235;-76
2021/01/31 13:56:45;;;;;;;7.60;2.70;;;1.20;99.90;;;;;;5036009;28;20189;-75
2021/01/31 13:59:14;;;;;;;5.82;2.88;;;1.30;99.90;;;;;;5035037;28;20185;-76
2021/01/31 14:01:41;;;;;;;8.98;4.53;;;1.20;99.90;;;;;;5016506;28;20216;-76
2021/01/31 14:04:09;;;;;;;5.70;4.72;;;1.10;99.90;;;;;;5017165;28;20202;-76
2021/01/31 14:06:38;;;;;;;4.65;2.63;;;1.00;99.90;;;;;;5035135;28;20186;-76
2021/01/31 14:09:07;;;;;;;5.20;4.50;;;0.90;99.90;;;;;;5050565;28;20227;-75
2021/01/31 14:11:36;;;;;;;7.00;3.88;;;0.90;99.90;;;;;;5054999;28;20173;-75
2021/01/31 14:14:04;;;;;;;5.50;3.83;;;0.90;99.90;;;;;;5055090;28;20204;-75
2021/01/31 14:16:32;;;;;;;3.65;2.63;;;0.80;99.90;;;;;;5054600;28;20231;-74
2021/01/31 14:18:59;;;;;;;4.47;3.67;;;0.70;99.90;;;;;;5055910;28;20655;-75
2021/01/31 14:21:33;;;;;;;6.38;3.40;;;0.70;99.90;;;;;;5037486;28;20645;-75
2021/01/31 14:24:01;;;;;;;5.32;3.45;;;0.70;99.90;;;;;;5055972;28;20173;-76
2021/01/31 14:26:30;;;;;;;4.85;3.72;;;0.60;99.90;;;;;;5056174;28;20560;-76
2021/01/31 14:28:58;;;;;;;5.50;4.38;;;0.60;99.90;;;;;;5037228;28;20240;-75
2021/01/31 14:31:28;;;;;;;5.50;3.22;;;0.50;99.90;;;;;;5035684;28;20181;-74
2021/01/31 14:34:08;;;;;;;7.32;4.68;;;0.40;99.90;;;;;;5036429;28;20732;-74
2021/01/31 14:36:36;;;;;;;5.03;2.33;;;0.50;99.90;;;;;;5054111;28;20634;-75
2021/01/31 14:39:05;;;;;;;7.40;4.28;;;0.40;99.90;;;;;;5055909;28;20177;-77
2021/01/31 14:41:34;;;;;;;8.48;4.40;;;0.40;99.90;;;;;;5057530;28;20589;-76
2021/01/31 14:44:01;;;;;;;5.38;3.55;;;0.30;99.90;;;;;;5057172;28;20256;-75
2021/01/31 14:46:29;;;;;;;3.10;2.80;;;0.20;99.90;;;;;;5055966;28;20173;-74
2021/01/31 14:48:56;;;;;;;3.45;2.70;;;0.20;99.90;;;;;;5053391;28;20213;-73
2021/01/31 14:51:23;;;;;;;9.15;4.53;;;0.10;99.90;;;;;;5053774;28;20201;-75
2021/01/31 14:53:51;;;;;;;4.15;2.70;;;0.00;99.90;;;;;;5054235;28;20553;-75
2021/01/31 14:56:18;;;;;;;3.90;2.45;;;0.00;99.90;;;;;;5055293;28;20653;-76
2021/01/31 14:58:46;;;;;;;5.05;4.22;;;-0.20;99.90;;;;;;5056751;28;20180;-80
2021/01/31 15:01:13;;;;;;;4.57;2.53;;;-0.20;99.90;;;;;;5055897;28;20187;-76
2021/01/31 15:03:40;;;;;;;7.43;5.43;;;-0.20;99.90;;;;;;5053445;28;20424;-77
2021/01/31 15:06:09;;;;;;;8.05;4.82;;;-0.30;99.90;;;;;;5056256;28;20411;-77
2021/01/31 15:08:36;;;;;;;5.95;4.40;;;-0.40;99.90;;;;;;5057218;28;20279;-74
2021/01/31 15:11:04;;;;;;;10.75;5.68;;;-0.60;99.90;;;;;;5058611;28;20177;-76
2021/01/31 15:13:32;;;;;;;5.95;2.75;;;-0.60;99.90;;;;;;5058532;28;20212;-75
2021/01/31 15:15:59;;;;;;;4.43;3.30;;;-0.70;99.90;;;;;;5042986;28;20201;-75
2021/01/31 15:18:26;;;;;;;6.07;3.28;;;-0.70;99.90;;;;;;5060095;28;20187;-75
2021/01/31 15:20:53;;;;;;;13.25;5.20;;;-0.80;99.90;;;;;;5044060;28;20193;-75
2021/01/31 15:23:21;;;;;;;3.42;2.63;;;-0.80;99.90;;;;;;5058090;28;20235;-74
2021/01/31 15:25:48;;;;;;;6.55;5.03;;;-0.90;99.90;;;;;;5058944;28;20177;-75
2021/01/31 15:28:15;;;;;;;7.75;4.45;;;-0.90;99.90;;;;;;5064660;28;20173;-76
2021/01/31 15:30:43;;;;;;;8.40;6.00;;;-1.00;99.90;;;;;;5053177;28;20193;-75
2021/01/31 15:33:10;;;;;;;9.13;4.85;;;-1.00;99.90;;;;;;5066409;28;20645;-75
2021/01/31 15:35:37;;;;;;;4.63;3.70;;;-1.00;99.90;;;;;;5065893;28;20174;-75
2021/01/31 15:38:08;;;;;;;2.55;1.98;;;-1.10;99.90;;;;;;5062394;28;20177;-75
2021/01/31 15:40:35;;;;;;;7.68;4.35;;;-1.20;99.90;;;;;;5054131;28;20649;-77
2021/01/31 15:43:02;;;;;;;5.30;2.90;;;-1.30;99.90;;;;;;5054843;28;20209;-76
2021/01/31 15:45:29;;;;;;;5.45;4.90;;;-1.40;99.90;;;;;;5054914;28;20203;-76
2021/01/31 15:47:58;;;;;;;4.22;3.58;;;-1.40;99.90;;;;;;5054437;28;20188;-76
2021/01/31 15:50:26;;;;;;;5.97;4.25;;;-1.40;99.90;;;;;;5055907;28;20212;-75
2021/01/31 15:52:53;;;;;;;6.90;3.30;;;-1.40;99.90;;;;;;5062142;28;20204;-76
2021/01/31 15:55:20;;;;;;;2.72;2.53;;;-1.50;99.90;;;;;;5048863;28;20188;-76
2021/01/31 15:57:47;;;;;;;3.28;3.00;;;-1.50;99.90;;;;;;5065719;28;20177;-75
2021/01/31 16:00:18;;;;;;;5.22;4.22;;;-1.60;99.90;;;;;;5057576;28;20184;-75
2021/01/31 16:02:46;;;;;;;5.38;4.13;;;-1.70;99.90;;;;;;5055933;28;20235;-76
2021/01/31 16:05:15;;;;;;;3.13;2.83;;;-1.80;99.90;;;;;;5038332;28;20181;-74
2021/01/31 16:07:43;;;;;;;7.30;4.25;;;-1.80;99.90;;;;;;5036775;28;20192;-77
2021/01/31 16:10:12;;;;;;;7.50;5.55;;;-1.80;99.90;;;;;;5053444;28;20251;-78
2021/01/31 16:12:39;;;;;;;8.52;4.68;;;-1.80;99.90;;;;;;5052993;28;20227;-76
2021/01/31 16:15:09;;;;;;;8.10;4.75;;;-1.90;99.90;;;;;;5059395;28;20726;-77
2021/01/31 16:17:37;;;;;;;3.03;2.50;;;-1.90;99.90;;;;;;5046892;28;20193;-77
2021/01/31 16:20:06;;;;;;;3.80;1.95;;;-1.90;99.90;;;;;;5065469;28;20212;-75
2021/01/31 16:22:34;;;;;;;4.05;3.15;;;-2.10;99.90;;;;;;5063943;28;20209;-79
2021/01/31 16:25:03;;;;;;;2.40;1.98;;;-2.10;99.90;;;;;;5055420;28;20636;-75
2021/01/31 16:27:30;;;;;;;4.32;3.88;;;-2.10;99.90;;;;;;5057631;28;20201;-75
2021/01/31 16:29:57;;;;;;;13.48;3.53;;;-2.20;99.90;;;;;;5056524;28;20547;-76
2021/01/31 16:32:25;;;;;;;5.00;3.22;;;-2.20;99.90;;;;;;5038719;28;20691;-77
2021/01/31 16:34:52;;;;;;;4.25;3.83;;;-2.20;99.90;;;;;;5056192;28;20181;-75
2021/01/31 16:37:21;;;;;;;4.07;3.42;;;-2.20;99.90;;;;;;5056319;28;20653;-75
2021/01/31 16:39:49;;;;;;;5.13;3.13;;;-2.20;99.90;;;;;;5056609;28;20169;-77
2021/01/31 16:42:17;;;;;;;3.65;2.92;;;-2.20;99.90;;;;;;5056152;28;20208;-77
2021/01/31 16:44:44;;;;;;;10.02;5.82;;;-2.20;99.90;;;;;;5056520;28;20173;-76
2021/01/31 16:47:11;;;;;;;3.25;2.42;;;-2.20;99.90;;;;;;5056370;28;20173;-75
2021/01/31 16:49:38;;;;;;;5.78;3.42;;;-2.20;99.90;;;;;;5056082;28;20212;-75
2021/01/31 16:52:06;;;;;;;4.53;4.13;;;-2.20;99.90;;;;;;5055934;28;20208;-75
2021/01/31 16:54:33;;;;;;;4.57;3.33;;;-2.20;99.90;;;;;;5056084;28;20208;-77
2021/01/31 16:57:01;;;;;;;4.85;3.10;;;-2.20;99.90;;;;;;5055902;28;20169;-76
2021/01/31 16:59:28;;;;;;;2.97;2.72;;;-2.20;99.90;;;;;;5057465;28;20173;-75
2021/01/31 17:01:55;;;;;;;5.80;5.13;;;-2.20;99.90;;;;;;5058325;28;20328;-76
2021/01/31 17:04:22;;;;;;;5.53;3.63;;;-2.20;99.90;;;;;;5058664;28;20180;-75
2021/01/31 17:06:49;;;;;;;6.90;4.43;;;-2.20;99.90;;;;;;5056657;28;20542;-75
2021/01/31 17:09:17;;;;;;;7.70;5.13;;;-2.20;99.90;;;;;;5055096;28;20644;-75
2021/01/31 17:11:59;;;;;;;8.13;3.58;;;-2.20;99.90;;;;;;5037725;28;20220;-76
2021/01/31 17:14:27;;;;;;;2.60;2.38;;;-2.20;99.90;;;;;;5055204;28;20188;-74
2021/01/31 17:16:54;;;;;;;4.63;3.38;;;-2.20;99.90;;;;;;5055030;28;20541;-75
2021/01/31 17:19:22;;;;;;;5.25;3.75;;;-2.30;99.90;;;;;;5055348;28;20199;-75
2021/01/31 17:21:49;;;;;;;5.32;4.82;;;-2.40;99.90;;;;;;5055078;28;20216;-75
2021/01/31 17:24:16;;;;;;;3.63;3.33;;;-2.40;99.90;;;;;;5055031;28;20190;-75
2021/01/31 17:26:43;;;;;;;6.43;5.05;;;-2.40;99.90;;;;;;5054735;28;20200;-76
2021/01/31 17:29:10;;;;;;;6.35;4.20;;;-2.40;99.90;;;;;;5055120;28;20201;-76
2021/01/31 17:31:39;;;;;;;4.70;4.30;;;-2.40;99.90;;;;;;5055316;28;20265;-75
2021/01/31 17:34:06;;;;;;;6.47;3.67;;;-2.40;99.90;;;;;;5037670;28;20184;-78
2021/01/31 17:36:33;;;;;;;7.45;5.30;;;-2.40;99.90;;;;;;5055476;28;20189;-76
2021/01/31 17:39:00;;;;;;;6.20;4.30;;;-2.40;99.90;;;;;;5055459;28;20176;-75
2021/01/31 17:41:28;;;;;;;4.78;4.20;;;-2.40;99.90;;;;;;5056340;28;20170;-75
2021/01/31 17:43:55;;;;;;;6.05;3.85;;;-2.40;99.90;;;;;;5057425;28;20189;-74
2021/01/31 17:46:22;;;;;;;3.90;3.60;;;-2.40;99.90;;;;;;5056682;28;20185;-76
2021/01/31 17:48:50;;;;;;;5.93;5.32;;;-2.50;99.90;;;;;;5056005;28;20192;-76
2021/01/31 17:51:18;;;;;;;9.27;4.40;;;-2.50;99.90;;;;;;5055825;28;20180;-77
2021/01/31 17:53:45;;;;;;;5.75;4.82;;;-2.50;99.90;;;;;;5057229;28;20196;-76
2021/01/31 17:56:12;;;;;;;5.60;4.13;;;-2.50;99.90;;;;;;5056651;28;20179;-76
2021/01/31 17:58:39;;;;;;;5.32;3.67;;;-2.50;99.90;;;;;;5056246;28;20295;-79
2021/01/31 18:01:07;;;;;;;5.90;5.22;;;-2.50;99.90;;;;;;5056988;28;20173;-78
2021/01/31 18:03:37;;;;;;;8.73;3.88;;;-2.50;99.90;;;;;;5057603;28;20583;-76
2021/01/31 18:06:05;;;;;;;6.00;4.65;;;-2.50;99.90;;;;;;5055091;28;20173;-76
2021/01/31 18:08:33;;;;;;;8.60;3.58;;;-2.60;99.90;;;;;;5038582;28;20189;-77
2021/01/31 18:11:01;;;;;;;6.00;5.43;;;-2.60;99.90;;;;;;5061926;28;20216;-77
2021/01/31 18:13:29;;;;;;;6.13;5.18;;;-2.60;99.90;;;;;;5040711;28;20217;-78
2021/01/31 18:16:01;;;;;;;5.35;3.50;;;-2.60;99.90;;;;;;5062758;28;20173;-76
2021/01/31 18:18:33;;;;;;;16.02;7.28;;;-2.60;99.90;;;;;;5064107;28;20260;-77
2021/01/31 18:21:00;;;;;;;9.38;5.95;;;-2.50;99.90;;;;;;5042743;28;20213;-77
2021/01/31 18:23:29;;;;;;;7.80;4.82;;;-2.60;99.90;;;;;;5055985;28;20295;-76
2021/01/31 18:25:56;;;;;;;11.55;5.82;;;-2.60;99.90;;;;;;5060726;28;20177;-77
2021/01/31 18:28:24;;;;;;;6.05;5.45;;;-2.50;99.90;;;;;;5064260;28;20177;-77
2021/01/31 18:30:51;;;;;;;9.88;4.03;;;-2.50;99.90;;;;;;5062772;28;20197;-79
2021/01/31 18:33:19;;;;;;;9.45;4.00;;;-2.60;99.90;;;;;;5060055;28;20205;-75
2021/01/31 18:35:47;;;;;;;8.32;3.13;;;-2.50;99.90;;;;;;5059216;28;20211;-77
2021/01/31 18:38:14;;;;;;;6.57;4.80;;;-2.50;99.90;;;;;;5044508;28;20200;-77
2021/01/31 18:40:44;;;;;;;8.70;3.40;;;-2.50;99.90;;;;;;5049338;28;20641;-78
2021/01/31 18:43:12;;;;;;;5.68;4.20;;;-2.50;99.90;;;;;;5047961;28;20208;-77
2021/01/31 18:45:43;;;;;;;14.83;9.03;;;-2.50;99.90;;;;;;5065530;28;20426;-77
2021/01/31 18:48:14;;;;;;;10.32;6.78;;;-2.60;99.90;;;;;;5063504;28;20435;-78
2021/01/31 18:50:41;;;;;;;3.30;3.00;;;-2.60;99.90;;;;;;5047587;28;20229;-78
2021/01/31 18:53:09;;;;;;;8.52;7.65;;;-2.60;99.90;;;;;;5061615;28;20218;-76
2021/01/31 18:55:37;;;;;;;8.77;6.03;;;-2.60;99.90;;;;;;5055297;28;20256;-77
2021/01/31 18:58:05;;;;;;;8.13;4.63;;;-2.70;99.90;;;;;;5054600;28;20173;-75
2021/01/31 19:00:33;;;;;;;7.03;3.22;;;-2.70;99.90;;;;;;5054669;28;20617;-75
2021/01/31 19:03:02;;;;;;;9.65;5.32;;;-2.60;99.90;;;;;;5054998;28;20208;-76
2021/01/31 19:05:30;;;;;;;13.13;6.13;;;-2.60;99.90;;;;;;5055893;28;20299;-76
2021/01/31 19:07:58;;;;;;;8.75;5.50;;;-2.70;99.90;;;;;;5055460;28;20223;-77
2021/01/31 19:10:28;;;;;;;6.70;6.03;;;-2.70;99.90;;;;;;5055248;28;20204;-79
2021/01/31 19:12:56;;;;;;;6.05;4.55;;;-2.70;99.90;;;;;;5039242;28;20270;-77
2021/01/31 19:15:25;;;;;;;8.00;6.53;;;-2.70;99.90;;;;;;5055820;28;20181;-75
2021/01/31 19:17:54;;;;;;;8.52;4.53;;;-2.70;99.90;;;;;;5055130;28;20559;-76
2021/01/31 19:20:22;;;;;;;8.00;5.80;;;-2.80;99.90;;;;;;5058081;28;20173;-78
2021/01/31 19:22:50;;;;;;;9.30;4.25;;;-2.80;99.90;;;;;;5042835;28;20217;-76
2021/01/31 19:25:18;;;;;;;6.38;3.58;;;-2.90;99.90;;;;;;5057491;28;20188;-78
2021/01/31 19:27:52;;;;;;;9.40;4.70;;;-2.90;99.90;;;;;;5058478;28;20177;-78
2021/01/31 19:31:23;;;;;;;7.25;4.80;;;-2.90;99.90;;;;;;5043965;28;20278;-76
2021/01/31 19:33:53;;;;;;;6.97;4.43;;;-2.90;99.90;;;;;;5052293;28;20188;-76
2021/01/31 19:36:21;;;;;;;8.10;4.53;;;-2.90;99.90;;;;;;5053953;28;20176;-77
2021/01/31 19:38:48;;;;;;;5.72;4.22;;;-2.90;99.90;;;;;;5054117;28;20180;-78
2021/01/31 19:41:15;;;;;;;4.45;4.00;;;-2.90;99.90;;;;;;5055040;28;20169;-77
2021/01/31 19:43:43;;;;;;;10.82;5.38;;;-3.00;99.90;;;;;;5054539;28;20692;-77
2021/01/31 19:46:11;;;;;;;13.75;6.43;;;-3.00;99.90;;;;;;5055700;28;20661;-77
2021/01/31 19:48:40;;;;;;;9.70;5.50;;;-3.00;99.90;;;;;;5055563;28;20254;-78
2021/01/31 19:51:09;;;;;;;6.38;3.20;;;-3.00;99.90;;;;;;5057889;28;20277;-77
2021/01/31 19:53:36;;;;;;;5.82;2.97;;;-3.00;99.90;;;;;;5045696;28;20787;-76
2021/01/31 19:56:04;;;;;;;4.95;4.18;;;-3.00;99.90;;;;;;5051995;28;20219;-77
2021/01/31 19:58:31;;;;;;;6.50;4.95;;;-3.00;99.90;;;;;;5067341;28;20168;-77
2021/01/31 20:00:58;;;;;;;3.35;3.08;;;-3.00;99.90;;;;;;5065454;28;20169;-77
2021/01/31 20:03:26;;;;;;;6.97;4.30;;;-3.10;99.90;;;;;;5058921;28;20269;-76
2021/01/31 20:05:55;;;;;;;9.68;4.38;;;-3.10;99.90;;;;;;5058370;28;20196;-76
2021/01/31 20:08:22;;;;;;;8.38;6.72;;;-3.10;99.90;;;;;;5057836;28;20271;-76
2021/01/31 20:10:50;;;;;;;15.75;5.70;;;-3.10;99.90;;;;;;5057345;28;20296;-75
2021/01/31 20:13:19;;;;;;;4.45;3.58;;;-3.10;99.90;;;;;;5039623;28;20219;-79
2021/01/31 20:15:47;;;;;;;10.38;4.93;;;-3.10;99.90;;;;;;5040459;28;20193;-78
2021/01/31 20:18:17;;;;;;;4.80;2.88;;;-3.10;99.90;;;;;;5041161;28;20280;-76
2021/01/31 20:20:47;;;;;;;4.72;2.60;;;-3.20;99.90;;;;;;5040317;28;20280;-77
2021/01/31 20:23:16;;;;;;;8.20;3.25;;;-3.20;99.90;;;;;;5040222;28;20243;-77
2021/01/31 20:25:43;;;;;;;8.77;4.47;;;-3.20;99.90;;;;;;5057148;28;20195;-76
2021/01/31 20:28:11;;;;;;;7.93;4.47;;;-3.10;99.90;;;;;;5056516;28;20180;-77
2021/01/31 20:30:39;;;;;;;4.75;3.47;;;-3.20;99.90;;;;;;5056842;28;20243;-76
2021/01/31 20:33:07;;;;;;;5.63;4.80;;;-3.20;99.90;;;;;;5039263;28;20212;-77
2021/01/31 20:35:36;;;;;;;11.40;6.25;;;-3.30;99.90;;;;;;5038781;28;20192;-77
2021/01/31 20:38:05;;;;;;;5.30;3.80;;;-3.30;99.90;;;;;;5056791;28;20169;-78
2021/01/31 20:40:35;;;;;;;11.73;7.30;;;-3.30;99.90;;;;;;5056568;28;20219;-78
2021/01/31 20:43:04;;;;;;;5.70;4.15;;;-3.20;99.90;;;;;;5079898;22;20708;-74
2021/01/31 20:45:34;;;;;;;5.05;4.65;;;-3.20;99.90;;;;;;5036778;28;20692;-73
2021/01/31 20:48:02;;;;;;;8.88;4.50;;;-3.20;99.90;;;;;;5036831;28;20595;-74
2021/01/31 20:50:32;;;;;;;7.53;4.85;;;-3.20;99.90;;;;;;5036387;28;20280;-75
2021/01/31 20:53:01;;;;;;;11.02;7.07;;;-3.20;99.90;;;;;;5036992;28;20255;-73
2021/01/31 20:55:28;;;;;;;5.40;4.57;;;-3.20;99.90;;;;;;5036585;28;20605;-73
2021/01/31 20:57:56;;;;;;;12.80;6.43;;;-3.30;99.90;;;;;;5036744;28;20193;-73
2021/01/31 21:00:26;;;;;;;6.25;3.60;;;-3.30;99.90;;;;;;5038444;28;20196;-73
2021/01/31 21:02:54;;;;;;;18.40;10.02;;;-3.30;99.90;;;;;;5038566;28;20805;-75
2021/01/31 21:05:37;;;;;;;13.10;7.43;;;-3.30;99.90;;;;;;5040794;28;20775;-75
2021/01/31 21:08:05;;;;;;;7.85;3.75;;;-3.40;99.90;;;;;;5044058;28;20185;-73
2021/01/31 21:10:36;;;;;;;7.00;4.60;;;-3.30;99.90;;;;;;5045241;28;20198;-72
2021/01/31 21:13:06;;;;;;;4.35;3.65;;;-3.30;99.90;;;;;;5048941;28;20557;-74
2021/01/31 21:15:34;;;;;;;8.52;4.93;;;-3.40;99.90;;;;;;5043788;28;20209;-75
2021/01/31 21:18:08;;;;;;;10.80;5.53;;;-3.30;99.90;;;;;;5035536;28;20540;-74
2021/01/31 21:20:36;;;;;;;6.15;4.03;;;-3.40;99.90;;;;;;5036524;28;20196;-74
2021/01/31 21:23:04;;;;;;;6.25;4.07;;;-3.30;99.90;;;;;;5041225;28;20245;-74
2021/01/31 21:25:34;;;;;;;5.97;2.92;;;-3.30;99.90;;;;;;5037615;28;20190;-75
2021/01/31 21:28:01;;;;;;;6.72;4.88;;;-3.30;99.90;;;;;;5035938;28;20668;-72
2021/01/31 21:30:31;;;;;;;8.10;7.07;;;-3.20;99.90;;;;;;5036161;28;20202;-73
2021/01/31 21:32:59;;;;;;;5.70;4.30;;;-3.30;99.90;;;;;;5035567;28;20221;-74
2021/01/31 21:35:26;;;;;;;9.07;5.30;;;-3.40;99.90;;;;;;5035680;28;20670;-74
2021/01/31 21:37:55;;;;;;;4.80;4.32;;;-3.30;99.90;;;;;;5034486;28;20193;-75
2021/01/31 21:40:26;;;;;;;7.28;5.63;;;-3.40;99.90;;;;;;5035512;28;20182;-74
2021/01/31 21:42:55;;;;;;;10.80;7.30;;;-3.40;99.90;;;;;;5035425;28;20571;-73
2021/01/31 21:45:23;;;;;;;11.45;7.63;;;-3.40;99.90;;;;;;5036270;28;20185;-74
2021/01/31 21:47:51;;;;;;;12.98;8.07;;;-3.40;99.90;;;;;;5035511;28;20200;-74
2021/01/31 21:50:21;;;;;;;8.02;6.88;;;-3.50;99.90;;;;;;5035679;28;20623;-76
2021/01/31 21:52:48;;;;;;;15.98;8.70;;;-3.40;99.90;;;;;;5035066;28;20248;-74
2021/01/31 21:55:16;;;;;;;6.25;4.60;;;-3.50;99.90;;;;;;5036105;28;20182;-73
2021/01/31 21:57:43;;;;;;;10.48;6.80;;;-3.50;99.90;;;;;;5036373;28;20231;-71
2021/01/31 22:00:13;;;;;;;16.90;8.75;;;-3.50;99.90;;;;;;5033245;28;20197;-74
2021/01/31 22:02:40;;;;;;;11.05;7.10;;;-3.50;99.90;;;;;;5034875;28;20225;-75
2021/01/31 22:05:09;;;;;;;7.07;6.40;;;-3.50;99.90;;;;;;5035061;28;20182;-75
2021/01/31 22:07:36;;;;;;;7.50;6.80;;;-3.60;99.90;;;;;;5034802;28;20240;-72
2021/01/31 22:10:05;;;;;;;8.02;5.00;;;-3.60;99.90;;;;;;5035237;28;20554;-73
2021/01/31 22:12:32;;;;;;;15.85;7.43;;;-3.60;99.90;;;;;;5034838;28;20205;-73
2021/01/31 22:15:00;;;;;;;4.55;4.05;;;-3.70;99.90;;;;;;5034883;28;20626;-73
2021/01/31 22:17:28;;;;;;;13.68;5.28;;;-3.70;99.90;;;;;;5034899;28;20174;-73
2021/01/31 22:19:55;;;;;;;5.43;4.55;;;-3.70;99.90;;;;;;5035001;28;20193;-74
2021/01/31 22:22:23;;;;;;;18.63;5.65;;;-3.70;99.90;;;;;;5035264;28;20205;-74
2021/01/31 22:24:50;;;;;;;9.32;6.07;;;-3.80;99.90;;;;;;5034139;28;20192;-74
2021/01/31 22:27:17;;;;;;;6.20;3.83;;;-3.80;99.90;;;;;;5034421;28;20201;-73
2021/01/31 22:29:44;;;;;;;7.75;5.78;;;-3.80;99.90;;;;;;5034346;28;20247;-74
2021/01/31 22:32:11;;;;;;;7.95;6.07;;;-3.80;99.90;;;;;;5034289;28;20216;-73
2021/01/31 22:34:40;;;;;;;11.68;4.25;;;-3.80;99.90;;;;;;5034555;28;20718;-74
2021/01/31 22:37:07;;;;;;;7.75;7.00;;;-3.70;99.90;;;;;;5033470;28;20198;-73
2021/01/31 22:39:35;;;;;;;11.07;7.88;;;-3.70;99.90;;;;;;5034400;28;20181;-74
2021/01/31 22:42:02;;;;;;;3.10;2.75;;;-3.80;99.90;;;;;;5034003;28;20177;-75
2021/01/31 22:44:29;;;;;;;14.25;7.85;;;-3.80;99.90;;;;;;5033130;28;20198;-74
2021/01/31 22:46:57;;;;;;;7.75;5.05;;;-3.80;99.90;;;;;;5032814;28;20193;-74
2021/01/31 22:49:25;;;;;;;5.03;3.67;;;-3.90;99.90;;;;;;5034047;28;20292;-74
2021/01/31 22:51:52;;;;;;;12.35;4.43;;;-3.90;99.90;;;;;;5033528;28;20200;-73
2021/01/31 22:54:19;;;;;;;9.02;4.80;;;-4.00;99.90;;;;;;5033543;28;20217;-74
2021/01/31 22:56:51;;;;;;;10.30;5.47;;;-4.00;99.90;;;;;;5033576;28;20181;-72
2021/01/31 22:59:18;;;;;;;15.13;4.53;;;-4.10;99.90;;;;;;5033753;28;20174;-74
2021/01/31 23:01:46;;;;;;;3.97;2.90;;;-4.10;99.90;;;;;;5033797;28;20231;-73
2021/01/31 23:04:21;;;;;;;10.70;2.67;;;-4.10;99.90;;;;;;5034244;28;20174;-77
2021/01/31 23:06:48;;;;;;;3.28;2.88;;;-4.10;99.90;;;;;;5034889;28;20196;-73
2021/01/31 23:09:15;;;;;;;3.92;2.95;;;-4.10;99.90;;;;;;5035441;28;20220;-75
2021/01/31 23:11:42;;;;;;;16.52;4.65;;;-4.10;99.90;;;;;;5035135;28;20194;-72
2021/01/31 23:14:10;;;;;;;6.15;3.45;;;-4.10;99.90;;;;;;5035812;28;20693;-74
2021/01/31 23:16:37;;;;;;;3.83;2.88;;;-4.20;99.90;;;;;;5033771;28;20225;-73
2021/01/31 23:19:04;;;;;;;8.18;4.60;;;-4.20;99.90;;;;;;5033889;28;20197;-72
2021/01/31 23:21:32;;;;;;;5.53;3.75;;;-4.30;99.90;;;;;;5034895;28;20178;-74
2021/01/31 23:23:59;;;;;;;5.63;3.42;;;-4.30;99.90;;;;;;5034431;28;20217;-74
2021/01/31 23:26:26;;;;;;;6.50;4.75;;;-4.20;99.90;;;;;;5033866;28;20185;-75
2021/01/31 23:28:53;;;;;;;6.22;5.47;;;-4.30;99.90;;;;;;5034128;28;20181;-74
2021/01/31 23:31:21;;;;;;;18.73;11.50;;;-4.30;99.90;;;;;;5032699;28;20440;-74
2021/01/31 23:33:48;;;;;;;8.88;6.95;;;-4.30;99.90;;;;;;5032907;28;20286;-73
2021/01/31 23:36:15;;;;;;;9.27;5.88;;;-4.40;99.90;;;;;;5033279;28;20178;-73
2021/01/31 23:38:42;;;;;;;5.05;2.83;;;-4.40;99.90;;;;;;5033455;28;20185;-74
2021/01/31 23:41:09;;;;;;;5.25;4.85;;;-4.40;99.90;;;;;;5034770;28;20201;-74
2021/01/31 23:43:36;;;;;;;5.30;3.85;;;-4.50;99.90;;;;;;5033748;28;20643;-73
2021/01/31 23:46:03;;;;;;;5.93;2.92;;;-4.60;99.90;;;;;;5034029;28;20181;-73
2021/01/31 23:48:31;;;;;;;9.02;4.88;;;-4.60;99.90;;;;;;5033708;28;20177;-74
2021/01/31 23:50:58;;;;;;;12.95;6.13;;;-4.70;99.90;;;;;;5033574;28;20213;-73
2021/01/31 23:53:25;;;;;;;15.88;6.50;;;-4.70;99.90;;;;;;5033011;28;20216;-74
2021/01/31 23:55:52;;;;;;;12.27;6.45;;;-4.70;99.90;;;;;;5033479;28;20193;-72
2021/01/31 23:58:19;;;;;;;10.70;4.40;;;-4.80;99.90;;;;;;5033423;28;20184;-72
